Flight Track Log - Related Links

Times and Time Zones

All times are in EDT time to prevent confusion due to time zone crossing. See the ASH1070 flight status page for this flight to view local times or setup timezone preferences in your user account.

Time Position Orientation Groundspeed Altitude Reporting Facility
EDT Latitude Longitude Course Direction KTS km/h feet Rate Location/Type
Thu 15:47:21 21.3167 -157.8833 163° South 160 296 1.000  Level Honolulu Center
Thu 15:48:21 21.2667 -157.8667 163° South 200 370 3.200 2.083 Climbing Honolulu Center
Thu 15:49:22 21.2333 -157.8000 118° Southeast 270 501 5.200 2.380 Climbing Honolulu Center
Thu 15:50:22 21.2000 -157.7333 118° Southeast 280 518 8.000 2.521 Climbing Honolulu Center
Thu 15:51:21 21.1500 -157.6667 129° Southeast 290 538 10.200 1.750 Climbing Honolulu Center
Thu 15:52:22 21.1167 -157.5833 113° Southeast 310 575 11.500 1.140 Climbing Honolulu Center
Thu 15:53:22 21.0667 -157.5000 123° Southeast 340 629 12.500 1.000 Climbing Honolulu Center
Thu 15:54:22 21.0167 -157.4000 118° Southeast 360 666 13.500 1.000 Climbing Honolulu Center
Thu 15:55:22 20.9833 -157.3000 110° East 370 686 14.500 750 Climbing Honolulu Center
Thu 15:56:22 20.9333 -157.2000 118° Southeast 370 686 15.000  Climbing Honolulu Center
Thu 15:57:22 20.8833 -157.1000 118° Southeast 400 740 14.500 -1.100 Descending Honolulu Center
Thu 15:58:22 20.8500 -157.0000 110° East 350 649 12.800 -1.686 Descending Honolulu Center
Thu 15:59:23 20.8000 -156.9167 123° Southeast 310 575 11.100 -1.700 Descending Honolulu Center
Thu 16:00:22 20.7667 -156.8333 113° Southeast 280 518 9.400 -1.750 Descending Honolulu Center
Thu 16:01:23 20.7500 -156.7667 105° East 260 481 7.600 -1.884 Descending Honolulu Center
Thu 16:02:23 20.7167 -156.7000 118° Southeast 270 501 5.600 -2.000 Descending Honolulu Center
Thu 16:03:23 20.7167 -156.6167 90° East 280 518 3.600 -1.350 Descending Honolulu Center
Thu 16:04:23 20.7333 -156.5500 75° East 250 463 2.900 -450 Descending Honolulu Center
Thu 16:05:23 20.7833 -156.5000 43° Northeast 190 352 2.700 -600 Descending Honolulu Center
Thu 16:06:23 20.8167 -156.4833 25° Northeast 180 333 1.700 -1.000 Descending Honolulu Center

Login

Don't have an account? Register now (free) for customized features, flight alerts, and more!